Time;durP1;ratioP1;P1;durP2;ratioP2;P2;SDS_P1;SDS_P2;PMS_P1;PMS_P2;Temp;Humidity;BMP_temperature;BMP_pressure;BME280_temperature;BME280_humidity;BME280_pressure;Samples;Min_cycle;Max_cycle;Signal;HPM_P1;HPM_P2
2022/04/30 00:02:06;;;;;;;12.27;11.17;;;;;;;;;;5073073;28;20791;-76
2022/04/30 00:04:34;;;;;;;10.60;9.80;;;;;;;;;;5072740;28;20449;-76
2022/04/30 00:07:01;;;;;;;10.87;10.07;;;;;;;;;;5083661;28;20491;-76
2022/04/30 00:09:28;;;;;;;11.20;10.20;;;;;;;;;;5093118;28;20487;-77
2022/04/30 00:11:57;;;;;;;12.17;10.97;;;;;;;;;;5093055;28;20479;-77
2022/04/30 00:14:24;;;;;;;11.87;10.90;;;;;;;;;;5095171;28;20518;-76
2022/04/30 00:16:51;;;;;;;12.13;11.23;;;;;;;;;;5095932;28;20467;-76
2022/04/30 00:19:19;;;;;;;12.00;11.03;;;;;;;;;;5095332;28;20447;-77
2022/04/30 00:21:46;;;;;;;12.77;11.63;;;;;;;;;;5094018;28;20467;-77
2022/04/30 00:24:13;;;;;;;16.90;11.30;;;;;;;;;;5093952;28;20882;-76
2022/04/30 00:26:40;;;;;;;12.37;11.17;;;;;;;;;;5092585;28;21048;-75
2022/04/30 00:29:09;;;;;;;13.27;12.10;;;;;;;;;;5092744;28;20483;-76
2022/04/30 00:31:36;;;;;;;14.27;13.07;;;;;;;;;;5093056;28;20443;-76
2022/04/30 00:34:03;;;;;;;14.20;13.10;;;;;;;;;;5093136;28;20492;-76
2022/04/30 00:36:30;;;;;;;14.27;12.90;;;;;;;;;;5092369;28;20467;-77
2022/04/30 00:38:57;;;;;;;13.90;12.70;;;;;;;;;;5092920;28;20850;-76
2022/04/30 00:41:24;;;;;;;13.30;12.13;;;;;;;;;;5092654;28;20448;-77
2022/04/30 00:43:53;;;;;;;12.57;11.63;;;;;;;;;;5092701;28;20553;-77
2022/04/30 00:46:22;;;;;;;13.07;11.97;;;;;;;;;;5092174;28;20904;-76
2022/04/30 00:48:49;;;;;;;13.87;12.67;;;;;;;;;;5092680;28;20474;-76
2022/04/30 00:51:18;;;;;;;13.60;12.50;;;;;;;;;;5092309;28;20515;-76
2022/04/30 00:53:46;;;;;;;14.93;12.70;;;;;;;;;;5092579;28;20896;-77
2022/04/30 00:56:14;;;;;;;12.77;11.67;;;;;;;;;;5093008;28;21003;-78
2022/04/30 00:58:42;;;;;;;13.80;11.80;;;;;;;;;;5093260;28;20491;-76
2022/04/30 01:01:09;;;;;;;12.50;11.50;;;;;;;;;;5092568;28;20446;-76
2022/04/30 01:03:39;;;;;;;13.20;12.13;;;;;;;;;;5092272;28;20867;-76
2022/04/30 01:06:06;;;;;;;13.20;12.10;;;;;;;;;;5092854;28;20473;-77
2022/04/30 01:08:33;;;;;;;15.50;13.80;;;;;;;;;;5092569;28;20448;-76
2022/04/30 01:11:01;;;;;;;16.07;14.60;;;;;;;;;;5095273;28;21002;-76
2022/04/30 01:13:28;;;;;;;15.73;14.43;;;;;;;;;;5094034;28;20475;-77
2022/04/30 01:15:58;;;;;;;15.97;14.27;;;;;;;;;;5099013;28;20489;-76
2022/04/30 01:18:26;;;;;;;15.47;14.03;;;;;;;;;;5103570;28;20447;-77
2022/04/30 01:20:56;;;;;;;14.70;13.40;;;;;;;;;;5095502;28;20524;-76
2022/04/30 01:23:26;;;;;;;17.87;16.00;;;;;;;;;;5096648;28;20428;-76
2022/04/30 01:25:54;;;;;;;18.43;16.60;;;;;;;;;;5099456;28;20456;-78
2022/04/30 01:28:21;;;;;;;17.90;16.10;;;;;;;;;;5098147;28;20444;-76
2022/04/30 01:30:49;;;;;;;19.80;17.80;;;;;;;;;;5098170;28;20471;-77
2022/04/30 01:38:49;;;;;;;23.57;19.93;;;;;;;;;;5100051;28;20604;-76
2022/04/30 01:41:16;;;;;;;26.75;19.23;;;;;;;;;;5096058;28;20433;-76
2022/04/30 01:43:43;;;;;;;23.90;21.50;;;;;;;;;;5091176;28;20448;-76
2022/04/30 01:46:10;;;;;;;24.33;21.73;;;;;;;;;;5090533;28;20808;-76
2022/04/30 01:48:38;;;;;;;25.57;20.17;;;;;;;;;;5091276;28;20258;-78
2022/04/30 01:51:05;;;;;;;28.67;20.70;;;;;;;;;;5091321;28;20483;-75
2022/04/30 01:53:32;;;;;;;24.65;22.05;;;;;;;;;;5090147;28;20441;-76
2022/04/30 01:56:00;;;;;;;26.80;22.20;;;;;;;;;;5091190;28;20222;-76
2022/04/30 01:58:27;;;;;;;26.47;22.27;;;;;;;;;;5090566;28;20858;-76
2022/04/30 02:00:54;;;;;;;24.65;22.05;;;;;;;;;;5091693;28;20451;-76
2022/04/30 02:03:21;;;;;;;25.58;22.65;;;;;;;;;;5090674;28;20478;-78
2022/04/30 02:05:49;;;;;;;26.25;23.45;;;;;;;;;;5090166;28;20449;-77
2022/04/30 02:08:18;;;;;;;34.50;21.77;;;;;;;;;;5091714;28;20202;-75
2022/04/30 02:10:45;;;;;;;26.85;23.15;;;;;;;;;;5090303;28;20463;-77
2022/04/30 02:13:14;;;;;;;26.00;22.90;;;;;;;;;;5090757;28;20735;-76
2022/04/30 02:15:42;;;;;;;25.73;21.00;;;;;;;;;;5091339;28;20547;-76
2022/04/30 02:18:12;;;;;;;26.03;20.60;;;;;;;;;;5091929;28;20450;-78
2022/04/30 02:20:42;;;;;;;24.13;21.47;;;;;;;;;;5091091;28;20478;-75
2022/04/30 02:23:09;;;;;;;22.63;20.10;;;;;;;;;;5090459;28;20452;-77
2022/04/30 02:25:37;;;;;;;28.60;21.60;;;;;;;;;;5090976;28;20450;-76
2022/04/30 02:28:08;;;;;;;25.33;21.40;;;;;;;;;;5095455;28;20448;-76
2022/04/30 02:30:37;;;;;;;25.53;22.50;;;;;;;;;;5093131;28;20460;-76
2022/04/30 02:33:05;;;;;;;24.95;22.10;;;;;;;;;;5089556;28;20451;-78
2022/04/30 02:35:34;;;;;;;26.15;23.45;;;;;;;;;;5089983;28;20441;-76
2022/04/30 02:38:03;;;;;;;24.57;22.00;;;;;;;;;;5091331;28;20198;-75
2022/04/30 02:40:33;;;;;;;24.43;21.97;;;;;;;;;;5090539;28;20452;-76
2022/04/30 02:43:03;;;;;;;23.63;20.20;;;;;;;;;;5090780;28;20537;-77
2022/04/30 02:45:30;;;;;;;21.13;18.93;;;;;;;;;;5090277;28;20961;-76
2022/04/30 02:47:58;;;;;;;21.60;19.50;;;;;;;;;;5090532;28;20457;-75
2022/04/30 02:50:25;;;;;;;21.30;19.17;;;;;;;;;;5090575;28;20476;-75
2022/04/30 02:52:54;;;;;;;22.85;20.38;;;;;;;;;;5089688;28;20968;-76
2022/04/30 02:55:21;;;;;;;21.23;18.92;;;;;;;;;;5090230;28;20952;-76
2022/04/30 03:00:30;;;;;;;22.63;19.90;;;;;;;;;;5093430;28;20463;-76
2022/04/30 03:02:59;;;;;;;21.97;19.67;;;;;;;;;;5094061;28;20443;-76
2022/04/30 03:05:26;;;;;;;24.63;21.83;;;;;;;;;;5093167;28;20440;-77
2022/04/30 03:07:54;;;;;;;23.37;20.40;;;;;;;;;;5094565;28;20687;-75
2022/04/30 03:10:21;;;;;;;25.60;22.90;;;;;;;;;;5093398;28;20459;-78
2022/04/30 03:12:49;;;;;;;25.50;22.90;;;;;;;;;;5093520;28;20444;-76
2022/04/30 03:15:19;;;;;;;24.27;21.75;;;;;;;;;;5093771;28;20344;-78
2022/04/30 03:23:17;;;;;;;25.83;22.40;;;;;;;;;;5094015;28;20447;-76
2022/04/30 03:25:44;;;;;;;30.63;23.40;;;;;;;;;;5094362;28;20443;-77
2022/04/30 03:28:11;;;;;;;26.00;21.63;;;;;;;;;;5094198;28;20463;-76
2022/04/30 03:30:38;;;;;;;28.70;23.97;;;;;;;;;;5093594;28;20978;-75
2022/04/30 03:33:08;;;;;;;27.10;23.13;;;;;;;;;;5093337;28;20432;-77
2022/04/30 03:35:36;;;;;;;26.33;23.53;;;;;;;;;;5094366;28;20440;-76
2022/04/30 03:38:03;;;;;;;32.70;25.03;;;;;;;;;;5094290;28;20443;-74
2022/04/30 03:40:30;;;;;;;27.77;23.07;;;;;;;;;;5093883;28;20443;-77
2022/04/30 03:42:57;;;;;;;31.23;24.57;;;;;;;;;;5094011;28;20987;-76
2022/04/30 03:45:25;;;;;;;29.33;24.13;;;;;;;;;;5093978;28;20965;-78
2022/04/30 03:47:52;;;;;;;35.13;25.23;;;;;;;;;;5093823;28;20443;-77
2022/04/30 03:50:19;;;;;;;32.67;28.70;;;;;;;;;;5092789;28;20459;-75
2022/04/30 03:52:47;;;;;;;32.67;28.40;;;;;;;;;;5093880;28;20256;-78
2022/04/30 03:55:15;;;;;;;31.57;26.10;;;;;;;;;;5094305;28;20452;-75
2022/04/30 03:57:42;;;;;;;35.13;28.30;;;;;;;;;;5094869;28;20997;-76
2022/04/30 04:00:10;;;;;;;37.20;29.77;;;;;;;;;;5095638;28;20448;-76
2022/04/30 04:02:39;;;;;;;36.80;28.43;;;;;;;;;;5094319;28;20448;-76
2022/04/30 04:05:08;;;;;;;35.90;28.07;;;;;;;;;;5095306;28;20443;-76
2022/04/30 04:07:35;;;;;;;37.63;29.87;;;;;;;;;;5095248;28;20471;-74
2022/04/30 04:10:04;;;;;;;37.60;30.77;;;;;;;;;;5092101;28;20459;-78
2022/04/30 04:12:31;;;;;;;37.80;29.67;;;;;;;;;;5092173;28;20501;-75
2022/04/30 04:17:43;;;;;;;39.03;27.87;;;;;;;;;;5084976;28;20435;-76
2022/04/30 04:20:11;;;;;;;34.90;30.40;;;;;;;;;;5076285;28;20822;-76
2022/04/30 04:22:38;;;;;;;36.17;28.30;;;;;;;;;;5074044;28;20494;-77
2022/04/30 04:27:54;;;;;;;37.78;32.40;;;;;;;;;;5072204;28;20967;-77
2022/04/30 04:30:21;;;;;;;36.75;31.50;;;;;;;;;;5071844;28;20472;-76
2022/04/30 04:32:48;;;;;;;33.93;30.33;;;;;;;;;;5071776;28;20229;-78
2022/04/30 04:35:16;;;;;;;33.77;30.17;;;;;;;;;;5072183;28;20448;-76
2022/04/30 04:37:43;;;;;;;33.70;27.73;;;;;;;;;;5073210;28;20476;-77
2022/04/30 04:40:12;;;;;;;32.57;29.07;;;;;;;;;;5073226;28;20881;-77
2022/04/30 04:42:40;;;;;;;36.03;31.70;;;;;;;;;;5071194;28;20889;-77
2022/04/30 04:45:08;;;;;;;37.33;33.43;;;;;;;;;;5073297;28;20579;-77
2022/04/30 04:47:36;;;;;;;38.70;30.73;;;;;;;;;;5076454;28;20917;-76
2022/04/30 04:50:03;;;;;;;37.93;29.80;;;;;;;;;;5080298;28;20441;-76
2022/04/30 04:52:30;;;;;;;34.17;28.00;;;;;;;;;;5079041;28;20472;-76
2022/04/30 04:54:57;;;;;;;36.80;32.22;;;;;;;;;;5076609;28;20434;-75
2022/04/30 04:57:25;;;;;;;38.20;34.10;;;;;;;;;;5073371;28;20442;-77
2022/04/30 04:59:54;;;;;;;38.13;32.85;;;;;;;;;;5070876;28;20442;-77
2022/04/30 05:02:21;;;;;;;34.63;31.00;;;;;;;;;;5071392;28;20233;-76
2022/04/30 05:04:48;;;;;;;36.55;29.35;;;;;;;;;;5071113;28;20925;-76
2022/04/30 05:07:15;;;;;;;34.30;28.97;;;;;;;;;;5083993;28;20218;-76
2022/04/30 05:09:42;;;;;;;35.53;30.03;;;;;;;;;;5091776;28;20447;-77
2022/04/30 05:12:09;;;;;;;36.70;32.72;;;;;;;;;;5090784;28;20459;-76
2022/04/30 05:14:38;;;;;;;34.83;30.27;;;;;;;;;;5091729;28;20208;-76
2022/04/30 05:17:06;;;;;;;32.93;29.27;;;;;;;;;;5091780;28;20472;-77
2022/04/30 05:19:33;;;;;;;36.57;30.73;;;;;;;;;;5091594;28;20432;-76
2022/04/30 05:22:01;;;;;;;36.80;29.60;;;;;;;;;;5091944;28;20447;-76
2022/04/30 05:24:28;;;;;;;34.27;30.00;;;;;;;;;;5091652;28;20451;-76
2022/04/30 05:26:55;;;;;;;37.20;33.25;;;;;;;;;;5090945;28;20443;-77
2022/04/30 05:29:23;;;;;;;38.53;31.83;;;;;;;;;;5091889;28;20206;-77
2022/04/30 05:31:51;;;;;;;34.90;30.37;;;;;;;;;;5091762;28;20506;-76
2022/04/30 05:34:18;;;;;;;34.50;28.37;;;;;;;;;;5091134;28;20439;-75
2022/04/30 05:36:45;;;;;;;35.50;29.73;;;;;;;;;;5091227;28;20470;-76
2022/04/30 05:39:12;;;;;;;32.40;28.57;;;;;;;;;;5091550;28;20455;-76
2022/04/30 05:41:39;;;;;;;32.23;28.27;;;;;;;;;;5091227;28;20444;-76
2022/04/30 05:44:06;;;;;;;37.87;29.97;;;;;;;;;;5090884;28;20448;-76
2022/04/30 05:46:33;;;;;;;33.53;29.70;;;;;;;;;;5091541;28;21021;-76
2022/04/30 05:49:02;;;;;;;43.10;31.13;;;;;;;;;;5090930;28;20987;-76
2022/04/30 05:51:29;;;;;;;33.77;28.33;;;;;;;;;;5091374;28;20519;-76
2022/04/30 05:53:57;;;;;;;32.97;28.70;;;;;;;;;;5091082;28;20463;-77
2022/04/30 05:56:24;;;;;;;43.27;29.53;;;;;;;;;;5090930;28;20621;-77
2022/04/30 05:58:51;;;;;;;30.80;27.40;;;;;;;;;;5091224;28;20444;-76
2022/04/30 06:01:18;;;;;;;33.43;28.27;;;;;;;;;;5090639;28;20436;-77
2022/04/30 06:03:45;;;;;;;33.60;29.03;;;;;;;;;;5090706;28;20451;-77
2022/04/30 06:06:13;;;;;;;32.90;28.67;;;;;;;;;;5089363;28;20464;-76
2022/04/30 06:08:41;;;;;;;35.80;27.70;;;;;;;;;;5090383;28;20450;-75
2022/04/30 06:11:08;;;;;;;30.03;26.80;;;;;;;;;;5090858;28;20544;-76
2022/04/30 06:13:35;;;;;;;31.97;27.90;;;;;;;;;;5090624;28;20439;-77
2022/04/30 06:16:02;;;;;;;35.57;28.27;;;;;;;;;;5090826;28;20467;-76
2022/04/30 06:18:32;;;;;;;35.40;28.90;;;;;;;;;;5092373;28;20448;-78
2022/04/30 06:20:59;;;;;;;32.93;28.70;;;;;;;;;;5091292;28;20877;-76
2022/04/30 06:23:27;;;;;;;34.80;29.37;;;;;;;;;;5090979;28;20444;-75
2022/04/30 06:25:54;;;;;;;32.80;27.40;;;;;;;;;;5091987;28;20479;-76
2022/04/30 06:28:22;;;;;;;35.13;29.50;;;;;;;;;;5090816;28;20454;-77
2022/04/30 06:30:49;;;;;;;33.67;30.10;;;;;;;;;;5091300;28;20439;-77
2022/04/30 06:33:16;;;;;;;33.70;28.20;;;;;;;;;;5089358;28;20797;-77
2022/04/30 06:35:43;;;;;;;36.63;28.50;;;;;;;;;;5090494;28;20450;-78
2022/04/30 06:38:11;;;;;;;36.10;27.70;;;;;;;;;;5090550;28;20455;-76
2022/04/30 06:40:39;;;;;;;36.60;27.80;;;;;;;;;;5090484;28;20448;-76
2022/04/30 06:43:06;;;;;;;33.60;28.67;;;;;;;;;;5090756;28;20440;-76
2022/04/30 06:45:35;;;;;;;31.13;27.80;;;;;;;;;;5091343;28;20578;-77
2022/04/30 06:48:02;;;;;;;31.50;26.20;;;;;;;;;;5082726;28;20490;-78
2022/04/30 06:50:29;;;;;;;34.77;27.77;;;;;;;;;;5090103;28;20451;-77
2022/04/30 06:58:40;;;;;;;31.97;27.77;;;;;;;;;;5095886;28;20439;-77
2022/04/30 07:01:29;;;;;;;29.20;26.03;;;;;;;;;;5096104;28;20455;-76
2022/04/30 07:04:01;;;;;;;28.40;25.00;;;;;;;;;;5089779;28;20447;-77
2022/04/30 07:06:29;;;;;;;28.43;25.43;;;;;;;;;;5089990;28;20491;-77
2022/04/30 07:08:56;;;;;;;29.47;25.70;;;;;;;;;;5089999;28;21038;-75
2022/04/30 07:11:25;;;;;;;35.30;27.30;;;;;;;;;;5089941;28;20509;-78
2022/04/30 07:13:53;;;;;;;31.70;27.13;;;;;;;;;;5092395;28;20472;-76
2022/04/30 07:16:20;;;;;;;29.83;24.90;;;;;;;;;;5090685;28;20541;-76
2022/04/30 07:18:47;;;;;;;31.53;25.60;;;;;;;;;;5089859;28;20969;-76
2022/04/30 07:21:14;;;;;;;28.07;25.07;;;;;;;;;;5089181;28;20927;-77
2022/04/30 07:23:41;;;;;;;26.53;23.27;;;;;;;;;;5090495;28;20826;-76
2022/04/30 07:26:08;;;;;;;28.87;25.87;;;;;;;;;;5091596;28;20472;-77
2022/04/30 07:28:36;;;;;;;27.17;24.27;;;;;;;;;;5092316;28;20477;-77
2022/04/30 07:31:04;;;;;;;26.63;23.73;;;;;;;;;;5090837;28;20448;-77
2022/04/30 07:33:31;;;;;;;26.60;24.00;;;;;;;;;;5092802;28;20955;-76
2022/04/30 07:35:58;;;;;;;29.40;25.10;;;;;;;;;;5095174;28;20818;-77
2022/04/30 07:38:25;;;;;;;27.10;23.70;;;;;;;;;;5098032;28;20448;-76
2022/04/30 07:40:53;;;;;;;26.50;23.63;;;;;;;;;;5094561;28;20454;-77
2022/04/30 07:43:20;;;;;;;26.60;23.70;;;;;;;;;;5090997;28;20847;-77
2022/04/30 07:45:48;;;;;;;27.23;24.53;;;;;;;;;;5092374;28;20474;-80
2022/04/30 07:48:15;;;;;;;28.07;25.20;;;;;;;;;;5094093;28;20450;-78
2022/04/30 07:50:44;;;;;;;27.63;24.77;;;;;;;;;;5094563;28;20451;-78
2022/04/30 07:53:13;;;;;;;28.83;24.10;;;;;;;;;;5093806;28;20998;-77
2022/04/30 07:55:40;;;;;;;26.80;23.40;;;;;;;;;;5093223;28;20471;-76
2022/04/30 07:58:08;;;;;;;27.37;24.63;;;;;;;;;;5093199;28;20456;-76
2022/04/30 08:00:36;;;;;;;27.23;24.43;;;;;;;;;;5093220;28;20447;-77
2022/04/30 08:03:04;;;;;;;26.33;23.50;;;;;;;;;;5092622;28;20471;-77
2022/04/30 08:05:31;;;;;;;28.57;24.00;;;;;;;;;;5093025;28;20443;-77
2022/04/30 08:07:58;;;;;;;27.67;22.53;;;;;;;;;;5093258;28;20448;-77
2022/04/30 08:10:26;;;;;;;26.30;23.60;;;;;;;;;;5093090;28;20460;-78
2022/04/30 08:12:54;;;;;;;28.53;25.73;;;;;;;;;;5092360;28;20505;-77
2022/04/30 08:15:22;;;;;;;26.20;23.60;;;;;;;;;;5092746;28;20502;-77
2022/04/30 08:17:49;;;;;;;25.30;22.83;;;;;;;;;;5092332;28;20467;-77
2022/04/30 08:20:17;;;;;;;25.97;23.17;;;;;;;;;;5093014;28;20462;-77
2022/04/30 08:22:44;;;;;;;25.83;23.30;;;;;;;;;;5092564;28;20440;-76
2022/04/30 08:25:11;;;;;;;27.13;22.60;;;;;;;;;;5092389;28;20450;-76
2022/04/30 08:27:40;;;;;;;24.97;22.47;;;;;;;;;;5086896;28;20829;-77
2022/04/30 08:30:08;;;;;;;28.87;22.27;;;;;;;;;;5092272;28;20479;-77
2022/04/30 08:32:35;;;;;;;26.97;22.87;;;;;;;;;;5083637;28;20472;-77
2022/04/30 08:35:02;;;;;;;25.17;22.50;;;;;;;;;;5092651;28;20444;-77
2022/04/30 08:37:31;;;;;;;25.70;22.90;;;;;;;;;;5090364;28;20467;-76
2022/04/30 08:39:58;;;;;;;24.13;21.70;;;;;;;;;;5089351;28;20440;-75
2022/04/30 08:42:25;;;;;;;24.07;21.77;;;;;;;;;;5092622;28;20443;-76
2022/04/30 08:44:52;;;;;;;24.70;21.60;;;;;;;;;;5093184;28;20557;-78
2022/04/30 08:47:19;;;;;;;24.93;22.33;;;;;;;;;;5091842;28;20971;-76
2022/04/30 08:49:50;;;;;;;25.27;22.73;;;;;;;;;;5092692;28;20448;-76
2022/04/30 08:52:17;;;;;;;25.70;23.03;;;;;;;;;;5092115;28;20479;-78
2022/04/30 08:54:45;;;;;;;24.67;22.03;;;;;;;;;;5092202;28;20954;-76
2022/04/30 08:57:14;;;;;;;26.03;23.37;;;;;;;;;;5091148;28;20833;-77
2022/04/30 08:59:41;;;;;;;22.90;20.70;;;;;;;;;;5092658;28;20486;-77
2022/04/30 09:02:10;;;;;;;24.40;22.17;;;;;;;;;;5092649;28;20531;-79
2022/04/30 09:04:45;;;;;;;24.07;21.53;;;;;;;;;;5092168;28;20479;-77
2022/04/30 09:07:16;;;;;;;23.23;21.03;;;;;;;;;;5091778;28;20459;-77
2022/04/30 09:09:43;;;;;;;22.67;20.53;;;;;;;;;;5092280;28;20931;-78
2022/04/30 09:12:13;;;;;;;20.97;19.07;;;;;;;;;;5092417;28;20476;-77
2022/04/30 09:14:41;;;;;;;21.20;19.10;;;;;;;;;;5092443;28;20490;-78
2022/04/30 09:17:09;;;;;;;19.60;17.73;;;;;;;;;;5091589;28;20541;-76
2022/04/30 09:19:46;;;;;;;19.77;17.80;;;;;;;;;;5092137;28;20459;-76
2022/04/30 09:22:14;;;;;;;20.70;18.63;;;;;;;;;;5091357;28;20988;-76
2022/04/30 09:24:48;;;;;;;22.33;18.77;;;;;;;;;;5092418;28;20471;-77
2022/04/30 09:27:16;;;;;;;21.97;19.27;;;;;;;;;;5092249;28;20455;-75
2022/04/30 09:29:43;;;;;;;21.67;19.37;;;;;;;;;;5091867;28;20447;-78
2022/04/30 09:32:16;;;;;;;19.97;17.87;;;;;;;;;;5091970;28;20543;-78
2022/04/30 09:37:46;;;;;;;18.30;16.63;;;;;;;;;;5083192;28;20448;-78
2022/04/30 09:40:23;;;;;;;17.90;16.23;;;;;;;;;;5092088;28;20492;-77
2022/04/30 09:42:51;;;;;;;18.40;16.73;;;;;;;;;;5087596;28;20439;-76
2022/04/30 09:45:29;;;;;;;18.77;17.07;;;;;;;;;;5089584;28;20440;-77
2022/04/30 09:47:57;;;;;;;17.77;16.07;;;;;;;;;;5071774;28;20453;-78
2022/04/30 09:55:55;;;;;;;17.83;16.23;;;;;;;;;;5074169;28;20520;-77
2022/04/30 09:58:25;;;;;;;17.97;16.47;;;;;;;;;;5088995;28;20436;-79
2022/04/30 10:00:54;;;;;;;17.43;15.83;;;;;;;;;;5090820;28;20440;-77
2022/04/30 10:03:23;;;;;;;17.90;16.10;;;;;;;;;;5090360;28;20475;-78
2022/04/30 10:05:50;;;;;;;16.47;14.97;;;;;;;;;;5090491;28;20464;-78
2022/04/30 10:08:19;;;;;;;17.03;15.40;;;;;;;;;;5091050;28;20452;-77
2022/04/30 10:10:51;;;;;;;15.50;14.20;;;;;;;;;;5090501;28;20471;-78
2022/04/30 10:13:24;;;;;;;15.80;14.40;;;;;;;;;;5090701;28;20475;-77
2022/04/30 10:15:54;;;;;;;17.07;15.40;;;;;;;;;;5090568;28;20497;-77
2022/04/30 10:18:24;;;;;;;13.93;12.73;;;;;;;;;;5090541;28;20451;-76
2022/04/30 10:20:52;;;;;;;13.60;12.40;;;;;;;;;;5090163;28;20445;-77
2022/04/30 10:23:19;;;;;;;14.63;13.37;;;;;;;;;;5089547;28;20444;-77
2022/04/30 10:25:47;;;;;;;14.67;13.27;;;;;;;;;;5090043;28;20447;-77
2022/04/30 10:28:22;;;;;;;15.33;13.87;;;;;;;;;;5090249;28;20447;-78
2022/04/30 10:31:00;;;;;;;14.47;13.23;;;;;;;;;;5090160;28;20922;-76
2022/04/30 10:33:27;;;;;;;14.37;12.97;;;;;;;;;;5089358;28;20517;-76
2022/04/30 10:36:04;;;;;;;13.77;12.57;;;;;;;;;;5089882;28;20551;-77
2022/04/30 10:38:31;;;;;;;15.03;13.63;;;;;;;;;;5090269;28;20468;-77
2022/04/30 10:40:59;;;;;;;15.70;14.30;;;;;;;;;;5090023;28;20451;-77
2022/04/30 10:43:31;;;;;;;15.03;13.63;;;;;;;;;;5089399;28;20448;-78
2022/04/30 10:45:59;;;;;;;15.23;13.80;;;;;;;;;;5090557;28;20554;-77
2022/04/30 10:48:28;;;;;;;12.57;11.50;;;;;;;;;;5090306;28;20444;-75
2022/04/30 10:51:03;;;;;;;13.63;12.50;;;;;;;;;;5090377;28;20440;-78
2022/04/30 10:53:30;;;;;;;12.80;11.70;;;;;;;;;;5090057;28;20470;-76
2022/04/30 10:55:57;;;;;;;12.27;11.27;;;;;;;;;;5092435;28;20821;-78
2022/04/30 10:58:25;;;;;;;9.47;8.67;;;;;;;;;;5096699;28;20446;-77
2022/04/30 11:00:52;;;;;;;8.93;8.23;;;;;;;;;;5100404;28;20946;-77
2022/04/30 11:03:19;;;;;;;8.60;8.00;;;;;;;;;;5098540;28;20444;-77
2022/04/30 11:05:51;;;;;;;6.90;6.40;;;;;;;;;;5090092;28;20492;-78
2022/04/30 11:08:18;;;;;;;6.90;6.30;;;;;;;;;;5089884;28;20444;-77
2022/04/30 11:10:50;;;;;;;5.90;5.50;;;;;;;;;;5089459;28;20485;-77
2022/04/30 11:13:17;;;;;;;6.30;5.90;;;;;;;;;;5089855;28;20511;-78
2022/04/30 11:15:44;;;;;;;6.60;6.20;;;;;;;;;;5090016;28;20484;-77
2022/04/30 11:18:11;;;;;;;6.83;6.33;;;;;;;;;;5089636;28;21013;-77
2022/04/30 11:20:38;;;;;;;6.10;5.63;;;;;;;;;;5091756;28;20447;-77
2022/04/30 11:23:06;;;;;;;7.40;6.63;;;;;;;;;;5086994;28;20431;-77
2022/04/30 11:25:35;;;;;;;7.27;6.70;;;;;;;;;;5093549;28;20458;-76
2022/04/30 11:28:06;;;;;;;6.87;6.37;;;;;;;;;;5093503;28;20969;-77
2022/04/30 11:30:35;;;;;;;7.10;6.50;;;;;;;;;;5093708;28;20448;-78
2022/04/30 11:33:03;;;;;;;7.20;6.60;;;;;;;;;;5093049;28;20471;-76
2022/04/30 11:35:30;;;;;;;6.97;6.47;;;;;;;;;;5099705;28;20443;-76
2022/04/30 11:37:57;;;;;;;7.13;6.73;;;;;;;;;;5100359;28;21022;-75
2022/04/30 11:40:26;;;;;;;7.17;6.67;;;;;;;;;;5100895;28;20481;-78
2022/04/30 11:42:56;;;;;;;7.90;7.30;;;;;;;;;;5100689;28;20492;-76
2022/04/30 11:45:28;;;;;;;7.00;6.50;;;;;;;;;;5097809;28;20803;-77
2022/04/30 11:47:56;;;;;;;7.57;7.00;;;;;;;;;;5093638;28;20809;-78
2022/04/30 11:50:23;;;;;;;7.20;6.70;;;;;;;;;;5093068;28;20451;-78
2022/04/30 11:52:50;;;;;;;7.10;6.47;;;;;;;;;;5093612;28;20767;-77
2022/04/30 11:55:20;;;;;;;7.43;6.93;;;;;;;;;;5093189;28;20447;-76
2022/04/30 11:57:49;;;;;;;7.40;6.80;;;;;;;;;;5092981;28;20547;-77
2022/04/30 12:00:17;;;;;;;7.43;6.93;;;;;;;;;;5093316;28;20483;-78
2022/04/30 12:02:47;;;;;;;7.80;7.20;;;;;;;;;;5092939;28;20520;-77
2022/04/30 12:05:15;;;;;;;7.13;6.63;;;;;;;;;;5093004;28;20933;-77
2022/04/30 12:07:42;;;;;;;7.67;7.17;;;;;;;;;;5093091;28;20467;-76
2022/04/30 12:10:16;;;;;;;7.77;7.07;;;;;;;;;;5090004;28;20456;-77
2022/04/30 12:12:43;;;;;;;7.23;6.73;;;;;;;;;;5088864;28;20526;-77
2022/04/30 12:15:19;;;;;;;6.67;6.17;;;;;;;;;;5092104;28;20482;-77
2022/04/30 12:24:40;;;;;;;7.33;6.80;;;;;;;;;;5090446;28;20491;-80
2022/04/30 12:26:09;;;;;;;9.00;8.13;;;;;;;;;;5090645;28;20435;-77
2022/04/30 12:28:43;;;;;;;8.70;8.10;;;;;;;;;;5088529;28;20927;-76
2022/04/30 12:31:12;;;;;;;8.00;7.40;;;;;;;;;;5092381;28;20478;-78
2022/04/30 12:33:44;;;;;;;8.73;8.13;;;;;;;;;;5090878;28;20486;-78
2022/04/30 12:36:12;;;;;;;8.00;7.30;;;;;;;;;;5092365;28;20459;-78
2022/04/30 12:38:39;;;;;;;9.03;8.33;;;;;;;;;;5092767;28;20447;-77
2022/04/30 12:41:07;;;;;;;8.53;7.73;;;;;;;;;;5092846;28;20436;-78
2022/04/30 12:43:36;;;;;;;9.37;8.50;;;;;;;;;;5092035;28;20443;-77
2022/04/30 12:46:04;;;;;;;9.50;8.80;;;;;;;;;;5083976;28;20643;-76
2022/04/30 12:48:33;;;;;;;10.38;9.57;;;;;;;;;;5082479;28;20493;-77
2022/04/30 12:51:00;;;;;;;10.03;9.07;;;;;;;;;;5092670;28;20532;-79
2022/04/30 12:53:27;;;;;;;9.60;8.70;;;;;;;;;;5092984;28;20476;-76
2022/04/30 12:55:54;;;;;;;8.60;7.90;;;;;;;;;;5092562;28;20474;-76
2022/04/30 12:58:22;;;;;;;8.63;7.80;;;;;;;;;;5092369;28;20548;-77
2022/04/30 13:00:49;;;;;;;9.70;8.93;;;;;;;;;;5092752;28;20498;-77
2022/04/30 13:03:16;;;;;;;9.70;9.00;;;;;;;;;;5092242;28;20808;-77
2022/04/30 13:05:45;;;;;;;7.80;7.20;;;;;;;;;;5093220;28;20201;-76
2022/04/30 13:08:12;;;;;;;7.60;7.00;;;;;;;;;;5090496;28;20440;-78
2022/04/30 13:13:34;;;;;;;10.83;9.93;;;;;;;;;;5092868;28;20578;-77
2022/04/30 13:16:03;;;;;;;10.43;9.53;;;;;;;;;;5093002;28;20477;-77
2022/04/30 13:18:30;;;;;;;12.07;11.00;;;;;;;;;;5092880;28;20455;-77
2022/04/30 13:20:58;;;;;;;13.23;11.93;;;;;;;;;;5092296;28;20440;-76
2022/04/30 13:23:25;;;;;;;13.73;12.63;;;;;;;;;;5105727;28;20463;-77
2022/04/30 13:25:52;;;;;;;15.97;14.47;;;;;;;;;;5098438;28;20490;-78
2022/04/30 13:28:20;;;;;;;17.87;16.20;;;;;;;;;;5094331;28;20794;-79
2022/04/30 13:30:47;;;;;;;17.13;15.63;;;;;;;;;;5093710;28;20451;-78
2022/04/30 13:33:14;;;;;;;20.25;18.45;;;;;;;;;;5092505;28;20444;-78
2022/04/30 13:35:41;;;;;;;19.63;17.92;;;;;;;;;;5093705;28;20432;-78
2022/04/30 13:38:10;;;;;;;19.23;17.50;;;;;;;;;;5089913;28;20473;-79
2022/04/30 13:40:37;;;;;;;18.90;17.10;;;;;;;;;;5110546;28;20492;-78
2022/04/30 13:43:06;;;;;;;18.67;16.70;;;;;;;;;;5101332;28;20189;-78
2022/04/30 13:45:33;;;;;;;18.50;17.00;;;;;;;;;;5092884;28;20444;-77
2022/04/30 13:48:00;;;;;;;19.05;17.45;;;;;;;;;;5092018;28;20812;-77
2022/04/30 13:50:27;;;;;;;19.35;17.75;;;;;;;;;;5092352;28;20454;-77
2022/04/30 13:52:55;;;;;;;17.20;15.70;;;;;;;;;;5092796;28;20229;-77
2022/04/30 13:55:23;;;;;;;18.25;16.45;;;;;;;;;;5099933;28;20445;-77
2022/04/30 13:57:50;;;;;;;17.70;15.27;;;;;;;;;;5097954;28;20305;-75
2022/04/30 14:00:21;;;;;;;15.77;14.20;;;;;;;;;;5095003;28;20448;-77
2022/04/30 14:02:48;;;;;;;17.45;15.95;;;;;;;;;;5094705;28;20447;-76
2022/04/30 14:05:15;;;;;;;17.70;16.10;;;;;;;;;;5095078;28;20198;-77
2022/04/30 14:07:42;;;;;;;17.05;15.55;;;;;;;;;;5094924;28;21006;-76
2022/04/30 14:10:10;;;;;;;18.10;16.60;;;;;;;;;;5093595;28;20428;-76
2022/04/30 14:12:38;;;;;;;18.40;16.80;;;;;;;;;;5091327;28;20452;-76
2022/04/30 14:15:05;;;;;;;16.83;15.52;;;;;;;;;;5091147;28;20452;-75
2022/04/30 14:20:23;;;;;;;17.83;16.33;;;;;;;;;;5090005;28;20639;-75
2022/04/30 14:22:50;;;;;;;17.57;15.77;;;;;;;;;;5089771;28;20197;-76
2022/04/30 14:25:22;;;;;;;15.30;14.00;;;;;;;;;;5091069;28;20508;-76
2022/04/30 14:27:52;;;;;;;15.17;13.87;;;;;;;;;;5090761;28;20837;-77
2022/04/30 14:30:19;;;;;;;14.00;12.70;;;;;;;;;;5090566;28;20524;-77
2022/04/30 14:32:50;;;;;;;14.60;13.40;;;;;;;;;;5090086;28;20463;-77
2022/04/30 14:35:20;;;;;;;12.53;11.50;;;;;;;;;;5090833;28;20495;-76
2022/04/30 14:37:50;;;;;;;13.53;12.33;;;;;;;;;;5090862;28;20522;-76
2022/04/30 14:40:21;;;;;;;14.30;13.20;;;;;;;;;;5090055;28;20447;-77
2022/04/30 14:43:06;;;;;;;14.65;13.45;;;;;;;;;;5091450;28;20540;-76
2022/04/30 14:45:34;;;;;;;13.47;12.37;;;;;;;;;;5090826;28;20205;-77
2022/04/30 14:48:01;;;;;;;12.10;11.10;;;;;;;;;;5090693;28;20467;-76
2022/04/30 14:50:32;;;;;;;13.87;12.77;;;;;;;;;;5090992;28;20463;-77
2022/04/30 14:53:01;;;;;;;14.00;12.70;;;;;;;;;;5089889;28;20468;-77
2022/04/30 14:55:29;;;;;;;14.68;13.48;;;;;;;;;;5091905;28;20467;-77
2022/04/30 14:57:57;;;;;;;14.43;13.23;;;;;;;;;;5094153;28;20873;-78
2022/04/30 15:00:24;;;;;;;13.57;12.47;;;;;;;;;;5094444;28;20205;-78
2022/04/30 15:02:52;;;;;;;14.27;13.18;;;;;;;;;;5093067;28;20436;-76
2022/04/30 15:05:19;;;;;;;14.23;13.02;;;;;;;;;;5093703;28;20439;-77
2022/04/30 15:07:47;;;;;;;13.23;12.17;;;;;;;;;;5094913;28;20897;-77
2022/04/30 15:10:14;;;;;;;12.00;11.00;;;;;;;;;;5095676;28;20486;-77
2022/04/30 15:12:41;;;;;;;12.37;11.37;;;;;;;;;;5096526;28;21237;-77